createdAt,value
2023-05-12T00:01:17.686Z,9.90
2023-05-12T00:03:44.794Z,9.79
2023-05-12T00:06:12.529Z,9.73
2023-05-12T00:08:39.491Z,9.72
2023-05-12T00:11:06.339Z,9.72
2023-05-12T00:13:33.400Z,9.57
2023-05-12T00:16:00.681Z,9.54
2023-05-12T00:18:28.756Z,9.47
2023-05-12T00:20:55.918Z,9.50
2023-05-12T00:23:23.023Z,9.56
2023-05-12T00:25:50.183Z,9.55
2023-05-12T00:28:18.328Z,9.49
2023-05-12T00:30:45.293Z,9.56
2023-05-12T00:33:12.252Z,9.59
2023-05-12T00:35:39.223Z,9.57
2023-05-12T00:38:06.151Z,9.56
2023-05-12T00:40:33.023Z,9.54
2023-05-12T00:43:00.323Z,9.46
2023-05-12T00:45:29.700Z,9.43
2023-05-12T00:47:57.006Z,9.49
2023-05-12T00:50:24.231Z,9.53
2023-05-12T00:52:51.166Z,9.48
2023-05-12T00:55:18.086Z,9.51
2023-05-12T00:57:45.739Z,9.52
2023-05-12T01:00:14.194Z,9.46
2023-05-12T01:02:42.894Z,9.53
2023-05-12T01:05:10.363Z,9.60
2023-05-12T01:07:37.964Z,9.62
2023-05-12T01:10:05.957Z,9.56
2023-05-12T01:12:35.054Z,9.48
2023-05-12T01:15:02.615Z,9.48
2023-05-12T01:17:33.383Z,9.52
2023-05-12T01:20:01.888Z,9.44
2023-05-12T01:22:31.334Z,9.28
2023-05-12T01:25:00.033Z,9.14
2023-05-12T01:27:29.049Z,9.19
2023-05-12T01:29:59.013Z,9.16
2023-05-12T01:32:26.885Z,9.14
2023-05-12T01:34:53.839Z,9.26
2023-05-12T01:37:21.345Z,9.25
2023-05-12T01:39:48.517Z,9.26
2023-05-12T01:42:19.226Z,9.24
2023-05-12T01:44:46.618Z,9.37
2023-05-12T01:47:15.932Z,9.42
2023-05-12T01:49:48.013Z,9.34
2023-05-12T01:52:16.263Z,9.19
2023-05-12T01:54:43.255Z,9.08
2023-05-12T01:57:11.041Z,8.96
2023-05-12T01:59:38.746Z,8.83
2023-05-12T02:02:06.834Z,8.85
2023-05-12T02:04:34.707Z,8.89
2023-05-12T02:07:02.181Z,-128.00
2023-05-12T02:09:29.569Z,-128.00
2023-05-12T02:12:00.853Z,-128.00
2023-05-12T02:14:28.216Z,-128.00
2023-05-12T02:16:56.500Z,-128.00
2023-05-12T02:19:24.387Z,-128.00
2023-05-12T02:21:51.473Z,-128.00
2023-05-12T02:24:18.531Z,-128.00
2023-05-12T02:26:45.660Z,-128.00
2023-05-12T02:29:13.442Z,-128.00
2023-05-12T02:31:40.577Z,-128.00
2023-05-12T02:34:19.777Z,-128.00
2023-05-12T02:36:46.814Z,-128.00
2023-05-12T02:39:14.050Z,-128.00
2023-05-12T02:41:41.118Z,-128.00
2023-05-12T02:44:08.352Z,-128.00
2023-05-12T02:46:35.606Z,-128.00
2023-05-12T02:49:02.781Z,-128.00
2023-05-12T02:51:30.173Z,-128.00
2023-05-12T02:53:57.124Z,-128.00
2023-05-12T02:56:24.151Z,-128.00
2023-05-12T02:58:51.191Z,-128.00
2023-05-12T03:01:18.213Z,-128.00
2023-05-12T03:03:45.379Z,-128.00
2023-05-12T03:06:12.759Z,-128.00
2023-05-12T03:08:39.717Z,-128.00
2023-05-12T03:11:06.703Z,-128.00
2023-05-12T03:13:33.830Z,-128.00
2023-05-12T03:16:01.840Z,-128.00
2023-05-12T03:18:29.814Z,-128.00
2023-05-12T03:20:57.023Z,-128.00
2023-05-12T03:23:24.663Z,-128.00
2023-05-12T03:25:51.765Z,-128.00
2023-05-12T03:28:18.748Z,-128.00
2023-05-12T03:30:45.755Z,-128.00
2023-05-12T03:33:12.780Z,-128.00
2023-05-12T03:35:39.934Z,-128.00
2023-05-12T03:38:07.172Z,-128.00
2023-05-12T03:40:34.241Z,-128.00
2023-05-12T03:43:01.186Z,-128.00
2023-05-12T03:45:28.418Z,-128.00
2023-05-12T03:47:55.465Z,-128.00
2023-05-12T03:50:22.782Z,-128.00
2023-05-12T03:52:49.905Z,-128.00
2023-05-12T03:55:17.016Z,-128.00
2023-05-12T03:57:44.059Z,-128.00
2023-05-12T04:00:12.016Z,-128.00
2023-05-12T04:02:44.996Z,-128.00
2023-05-12T04:05:14.239Z,-128.00
2023-05-12T04:07:42.368Z,-128.00
2023-05-12T04:10:10.498Z,-128.00
2023-05-12T04:12:37.676Z,-128.00
2023-05-12T04:15:05.692Z,-128.00
2023-05-12T04:17:32.727Z,-128.00
2023-05-12T04:19:59.739Z,-128.00
2023-05-12T04:22:26.939Z,-128.00
2023-05-12T04:24:54.428Z,-128.00
2023-05-12T04:27:21.753Z,-128.00
2023-05-12T04:29:48.731Z,-128.00
2023-05-12T04:32:16.149Z,-128.00
2023-05-12T04:34:43.737Z,-128.00
2023-05-12T04:37:10.800Z,-128.00
2023-05-12T04:39:37.878Z,-128.00
2023-05-12T04:42:05.963Z,-128.00
2023-05-12T04:44:34.612Z,-128.00
2023-05-12T04:47:01.710Z,-128.00
2023-05-12T04:49:30.417Z,-128.00
2023-05-12T04:51:57.460Z,-128.00
2023-05-12T04:54:24.621Z,-128.00
2023-05-12T04:56:51.874Z,-128.00
2023-05-12T04:59:18.824Z,-128.00
2023-05-12T05:01:49.147Z,-128.00
2023-05-12T05:04:16.507Z,-128.00
2023-05-12T05:06:44.008Z,-128.00
2023-05-12T05:09:11.354Z,-128.00
2023-05-12T05:11:38.640Z,-128.00
2023-05-12T05:14:05.888Z,-128.00
2023-05-12T05:16:34.290Z,-128.00
2023-05-12T05:19:05.736Z,-128.00
2023-05-12T05:21:34.645Z,-128.00
2023-05-12T05:24:01.859Z,-128.00
2023-05-12T05:26:29.110Z,-128.00
2023-05-12T05:28:56.247Z,-128.00
2023-05-12T05:31:24.715Z,-128.00
2023-05-12T05:33:51.824Z,-128.00
2023-05-12T05:36:18.976Z,-128.00
2023-05-12T05:38:46.087Z,-128.00
2023-05-12T05:41:13.398Z,-128.00
2023-05-12T05:43:40.509Z,-128.00
2023-05-12T05:46:08.052Z,-128.00
2023-05-12T05:48:36.798Z,-128.00
2023-05-12T05:51:05.076Z,-128.00
2023-05-12T05:53:32.814Z,-128.00
2023-05-12T05:56:00.035Z,-128.00
2023-05-12T05:58:27.514Z,-128.00
2023-05-12T06:00:54.927Z,-128.00
2023-05-12T06:03:23.579Z,-128.00
2023-05-12T06:05:50.707Z,-128.00
2023-05-12T06:08:17.684Z,-128.00
2023-05-12T06:10:44.713Z,-128.00
2023-05-12T06:13:12.139Z,-128.00
2023-05-12T06:15:39.206Z,-128.00
2023-05-12T06:18:06.355Z,-128.00
2023-05-12T06:20:33.386Z,-128.00
2023-05-12T06:23:02.048Z,-128.00
2023-05-12T06:25:28.993Z,-128.00
2023-05-12T06:27:56.203Z,-128.00
2023-05-12T06:30:23.668Z,-128.00
2023-05-12T06:32:54.876Z,-128.00
2023-05-12T06:35:22.170Z,-128.00
2023-05-12T06:37:52.023Z,-128.00
2023-05-12T06:40:19.166Z,-128.00
2023-05-12T06:42:47.251Z,-128.00
2023-05-12T06:45:19.441Z,-128.00
2023-05-12T06:47:46.881Z,-128.00
2023-05-12T06:50:13.983Z,-128.00
2023-05-12T06:52:41.080Z,-128.00
2023-05-12T06:55:08.498Z,-128.00
2023-05-12T06:57:35.589Z,-128.00
2023-05-12T07:00:04.154Z,-128.00
2023-05-12T07:02:31.270Z,-128.00
2023-05-12T07:04:58.354Z,-128.00
2023-05-12T07:07:25.466Z,-128.00
2023-05-12T07:09:52.876Z,-128.00
2023-05-12T07:12:19.942Z,-128.00
2023-05-12T07:14:46.955Z,-128.00
2023-05-12T07:17:14.835Z,-128.00
2023-05-12T07:19:43.669Z,-128.00
2023-05-12T07:22:10.754Z,-128.00
2023-05-12T07:24:38.592Z,-128.00
2023-05-12T07:27:06.218Z,-128.00
2023-05-12T07:29:33.302Z,-128.00
2023-05-12T07:32:00.509Z,-128.00
2023-05-12T07:34:27.735Z,-128.00
2023-05-12T07:36:54.681Z,-128.00
2023-05-12T07:39:24.027Z,-128.00
2023-05-12T07:41:52.230Z,-128.00
2023-05-12T07:44:20.973Z,-128.00
2023-05-12T07:46:48.020Z,-128.00
2023-05-12T07:49:15.051Z,-128.00
2023-05-12T07:51:42.034Z,-128.00
2023-05-12T07:54:09.815Z,-128.00
2023-05-12T07:56:36.761Z,-128.00
2023-05-12T07:59:04.313Z,-128.00
2023-05-12T08:01:31.392Z,-128.00
2023-05-12T08:03:58.615Z,-128.00
2023-05-12T08:06:25.820Z,-128.00
2023-05-12T08:08:53.578Z,-128.00
2023-05-12T08:11:21.017Z,-128.00
2023-05-12T08:13:48.020Z,-128.00
2023-05-12T08:16:14.927Z,-128.00
2023-05-12T08:18:41.763Z,-128.00
2023-05-12T08:21:08.744Z,-128.00
2023-05-12T08:23:37.794Z,-128.00
2023-05-12T08:26:04.839Z,-128.00
2023-05-12T08:28:31.849Z,-128.00
2023-05-12T08:30:59.006Z,-128.00
2023-05-12T08:33:25.971Z,-128.00
2023-05-12T08:35:53.187Z,-128.00
2023-05-12T08:38:20.095Z,-128.00
2023-05-12T08:40:50.113Z,-128.00
2023-05-12T08:43:26.286Z,-128.00
2023-05-12T08:45:57.750Z,-128.00
2023-05-12T08:48:25.407Z,-128.00
2023-05-12T08:50:52.269Z,-128.00
2023-05-12T08:53:19.533Z,-128.00
2023-05-12T08:55:58.390Z,-128.00
2023-05-12T08:58:40.782Z,-128.00
2023-05-12T09:01:09.320Z,-128.00
2023-05-12T09:03:36.510Z,-128.00
2023-05-12T09:06:03.850Z,-128.00
2023-05-12T09:08:33.176Z,-128.00
2023-05-12T09:11:00.264Z,-128.00
2023-05-12T09:13:35.832Z,-128.00
2023-05-12T09:16:03.027Z,-128.00
2023-05-12T09:18:41.539Z,-128.00
2023-05-12T09:21:08.664Z,-128.00
2023-05-12T09:23:35.558Z,-128.00
2023-05-12T09:26:02.525Z,-128.00
2023-05-12T09:28:39.667Z,-128.00
2023-05-12T09:31:16.408Z,-128.00
2023-05-12T09:33:43.378Z,-128.00
2023-05-12T09:36:10.209Z,-128.00
2023-05-12T09:38:37.124Z,-128.00
2023-05-12T09:41:04.006Z,-128.00
2023-05-12T09:43:30.881Z,-128.00
2023-05-12T09:45:57.747Z,-128.00
2023-05-12T09:48:27.403Z,-128.00
2023-05-12T09:50:54.387Z,-128.00
2023-05-12T09:53:23.038Z,-128.00
2023-05-12T09:55:49.958Z,-128.00
2023-05-12T09:58:17.965Z,-128.00
2023-05-12T10:01:12.797Z,-128.00
2023-05-12T10:03:32.243Z,-128.00
2023-05-12T10:06:01.634Z,-128.00
2023-05-12T10:08:34.556Z,-128.00
2023-05-12T10:11:02.130Z,-128.00
2023-05-12T10:13:29.051Z,-128.00
2023-05-12T10:15:57.044Z,-128.00
2023-05-12T10:18:24.604Z,-128.00
2023-05-12T10:20:52.585Z,-128.00
2023-05-12T10:23:19.867Z,-128.00
2023-05-12T10:25:46.845Z,-128.00
2023-05-12T10:28:13.760Z,-128.00
2023-05-12T10:30:40.931Z,-128.00
2023-05-12T10:33:09.281Z,-128.00
2023-05-12T10:35:36.583Z,-128.00
2023-05-12T10:38:13.894Z,-128.00
2023-05-12T10:41:01.085Z,-128.00
2023-05-12T10:43:40.206Z,-128.00
2023-05-12T10:46:08.622Z,-128.00
2023-05-12T10:48:36.616Z,-128.00
2023-05-12T10:51:10.288Z,-128.00
2023-05-12T10:53:49.852Z,-128.00
2023-05-12T10:56:51.589Z,-128.00
2023-05-12T10:59:23.167Z,-128.00
2023-05-12T11:02:05.098Z,-128.00
2023-05-12T11:04:53.375Z,-128.00
2023-05-12T11:07:22.466Z,-128.00
2023-05-12T11:12:19.560Z,-128.00
2023-05-12T11:14:46.720Z,-128.00
2023-05-12T11:17:14.290Z,-128.00
2023-05-12T11:19:45.732Z,-128.00
2023-05-12T11:22:12.975Z,-128.00
2023-05-12T11:24:41.096Z,-128.00
2023-05-12T11:27:12.907Z,-128.00
2023-05-12T11:29:41.500Z,-128.00
2023-05-12T11:32:12.612Z,-128.00
2023-05-12T11:34:39.680Z,-128.00
2023-05-12T11:37:09.672Z,-128.00
2023-05-12T11:39:36.594Z,-128.00
2023-05-12T11:42:12.214Z,-128.00
2023-05-12T11:44:50.031Z,-128.00
2023-05-12T11:47:19.800Z,-128.00
2023-05-12T11:49:51.333Z,-128.00
2023-05-12T11:52:19.804Z,-128.00
2023-05-12T11:54:53.448Z,-128.00
2023-05-12T11:57:33.548Z,-128.00
2023-05-12T12:00:08.036Z,-128.00
2023-05-12T12:02:39.947Z,-128.00
2023-05-12T12:05:18.054Z,-128.00
2023-05-12T12:07:45.739Z,-128.00
2023-05-12T12:10:16.420Z,-128.00
2023-05-12T12:12:44.369Z,-128.00
2023-05-12T12:15:11.680Z,-128.00
2023-05-12T12:17:40.111Z,-128.00
2023-05-12T12:20:08.336Z,-128.00
2023-05-12T12:22:35.504Z,-128.00
2023-05-12T12:25:02.912Z,-128.00
2023-05-12T12:27:29.890Z,-128.00
2023-05-12T12:29:56.851Z,-128.00
2023-05-12T12:32:23.901Z,-128.00
2023-05-12T12:34:50.907Z,-128.00
2023-05-12T12:37:17.827Z,-128.00
2023-05-12T12:39:44.718Z,-128.00
2023-05-12T12:42:11.598Z,-128.00
2023-05-12T12:44:39.395Z,-128.00
2023-05-12T12:47:06.331Z,-128.00
2023-05-12T12:49:33.239Z,-128.00
2023-05-12T12:52:00.163Z,-128.00
2023-05-12T12:54:27.835Z,-128.00
2023-05-12T12:56:55.697Z,-128.00
2023-05-12T12:59:22.839Z,-128.00
2023-05-12T13:01:49.803Z,-128.00
2023-05-12T13:04:19.658Z,-128.00
2023-05-12T13:06:46.718Z,-128.00
2023-05-12T13:09:14.078Z,-128.00
2023-05-12T13:11:41.011Z,-128.00
2023-05-12T13:14:08.312Z,-128.00
2023-05-12T13:16:35.186Z,-128.00
2023-05-12T13:19:02.169Z,-128.00
2023-05-12T13:21:30.040Z,-128.00
2023-05-12T13:23:56.865Z,-128.00
2023-05-12T13:26:23.758Z,-128.00
2023-05-12T13:28:50.688Z,-128.00
2023-05-12T13:31:18.071Z,-128.00
2023-05-12T13:33:47.619Z,-128.00
2023-05-12T13:36:14.664Z,-128.00
2023-05-12T13:38:41.828Z,-128.00
2023-05-12T13:41:08.844Z,-128.00
2023-05-12T13:43:35.977Z,-128.00
2023-05-12T13:46:03.022Z,-128.00
2023-05-12T13:48:29.904Z,-128.00
2023-05-12T13:50:56.759Z,-128.00
2023-05-12T13:53:23.607Z,-128.00
2023-05-12T13:55:50.491Z,-128.00
2023-05-12T13:58:17.655Z,-128.00
2023-05-12T14:00:48.007Z,-128.00
2023-05-12T14:03:14.953Z,-128.00
2023-05-12T14:05:41.853Z,-128.00
2023-05-12T14:08:09.023Z,-128.00
2023-05-12T14:10:36.211Z,-128.00
2023-05-12T14:13:03.067Z,-128.00
2023-05-12T14:15:44.265Z,-128.00
2023-05-12T14:18:15.244Z,-128.00
2023-05-12T14:20:42.186Z,-128.00
2023-05-12T14:23:09.116Z,-128.00
2023-05-12T14:25:36.004Z,-128.00
2023-05-12T14:28:03.629Z,-128.00
2023-05-12T14:30:30.662Z,-128.00
2023-05-12T14:32:57.690Z,-128.00
2023-05-12T14:35:27.830Z,-128.00
2023-05-12T14:37:56.732Z,-128.00
2023-05-12T14:40:23.765Z,-128.00
2023-05-12T14:42:51.398Z,-128.00
2023-05-12T14:45:20.327Z,-128.00
2023-05-12T14:47:47.726Z,-128.00
2023-05-12T14:50:15.226Z,-128.00
2023-05-12T14:52:42.594Z,-128.00
2023-05-12T14:55:12.247Z,-128.00
2023-05-12T14:57:39.953Z,-128.00
2023-05-12T15:00:13.928Z,-128.00
2023-05-12T15:02:42.191Z,-128.00
2023-05-12T15:05:09.903Z,-128.00
2023-05-12T15:07:37.114Z,-128.00
2023-05-12T15:10:04.967Z,-128.00
2023-05-12T15:12:32.511Z,-128.00
2023-05-12T15:15:04.729Z,-128.00
2023-05-12T15:17:32.004Z,-128.00
2023-05-12T15:19:59.267Z,-128.00
2023-05-12T15:22:26.419Z,-128.00
2023-05-12T15:24:53.272Z,-128.00
2023-05-12T15:27:20.255Z,-128.00
2023-05-12T15:29:47.215Z,-128.00
2023-05-12T15:32:14.051Z,-128.00
2023-05-12T15:34:40.928Z,-128.00
2023-05-12T15:37:07.895Z,-128.00
2023-05-12T15:39:34.792Z,-128.00
2023-05-12T15:42:02.056Z,-128.00
2023-05-12T15:44:28.903Z,-128.00
2023-05-12T15:46:55.885Z,-128.00
2023-05-12T15:49:22.880Z,-128.00
2023-05-12T15:51:49.812Z,-128.00
2023-05-12T15:54:17.259Z,-128.00
2023-05-12T15:56:44.169Z,-128.00
2023-05-12T15:59:12.275Z,-128.00
2023-05-12T16:01:39.337Z,-128.00
2023-05-12T16:04:07.132Z,-128.00
2023-05-12T16:06:34.123Z,-128.00
2023-05-12T16:09:01.139Z,-128.00
2023-05-12T16:11:28.539Z,-128.00
2023-05-12T16:13:57.183Z,-128.00
2023-05-12T16:16:24.078Z,-128.00
2023-05-12T16:18:50.993Z,-128.00
2023-05-12T16:21:17.917Z,-128.00
2023-05-12T16:23:44.759Z,-128.00
2023-05-12T16:26:11.928Z,-128.00
2023-05-12T16:28:38.805Z,-128.00
2023-05-12T16:31:05.799Z,-128.00
2023-05-12T16:33:32.830Z,-128.00
2023-05-12T16:36:19.143Z,-128.00
2023-05-12T16:39:26.093Z,-128.00
2023-05-12T16:41:53.084Z,-128.00
2023-05-12T16:44:28.190Z,-128.00
2023-05-12T16:47:01.654Z,-128.00
2023-05-12T16:49:44.233Z,-128.00
2023-05-12T16:52:18.400Z,-128.00
2023-05-12T16:54:45.397Z,-128.00
2023-05-12T16:57:12.283Z,-128.00
2023-05-12T17:00:32.053Z,-128.00
2023-05-12T17:04:30.685Z,-128.00
2023-05-12T17:07:09.928Z,-128.00
2023-05-12T17:09:36.813Z,-128.00
2023-05-12T17:12:40.313Z,-128.00
2023-05-12T17:15:08.654Z,-128.00
2023-05-12T17:18:18.104Z,-128.00
2023-05-12T17:21:33.841Z,-128.00
2023-05-12T17:24:21.248Z,-128.00
2023-05-12T17:26:48.266Z,-128.00
2023-05-12T17:29:15.269Z,-128.00
2023-05-12T17:31:42.197Z,-128.00
2023-05-12T17:34:09.106Z,-128.00
2023-05-12T17:36:35.999Z,-128.00
2023-05-12T17:39:03.075Z,-128.00
2023-05-12T17:41:30.271Z,-128.00
2023-05-12T17:44:06.737Z,-128.00
2023-05-12T17:46:33.826Z,-128.00
2023-05-12T17:49:00.759Z,-128.00
2023-05-12T17:51:32.760Z,-128.00
2023-05-12T17:54:02.028Z,-128.00
2023-05-12T17:56:42.822Z,-128.00
2023-05-12T17:59:12.391Z,-128.00
2023-05-12T18:01:39.710Z,-128.00
2023-05-12T18:04:06.877Z,-128.00
2023-05-12T18:06:33.921Z,-128.00
2023-05-12T18:09:00.824Z,-128.00
2023-05-12T18:11:29.231Z,-128.00
2023-05-12T18:13:56.203Z,-128.00
2023-05-12T18:16:28.935Z,-128.00
2023-05-12T18:18:56.912Z,-128.00
2023-05-12T18:21:24.111Z,-128.00
2023-05-12T18:23:51.132Z,-128.00
2023-05-12T18:27:28.968Z,16.77
2023-05-12T18:29:56.860Z,16.50
2023-05-12T18:32:25.009Z,16.33
2023-05-12T18:34:53.949Z,-12.61
2023-05-12T18:37:21.414Z,-128.00
2023-05-12T18:39:48.824Z,-128.00
2023-05-12T18:42:15.713Z,-128.00
2023-05-12T18:44:42.730Z,-128.00
2023-05-12T18:47:10.770Z,-128.00
2023-05-12T18:49:37.799Z,-128.00
2023-05-12T18:52:05.032Z,-128.00
2023-05-12T18:54:32.064Z,-128.00
2023-05-12T18:56:59.353Z,-128.00
2023-05-12T18:59:28.585Z,-128.00
2023-05-12T19:01:56.661Z,-128.00
2023-05-12T19:04:23.790Z,-128.00
2023-05-12T19:06:50.831Z,-128.00
2023-05-12T19:09:17.832Z,-128.00
2023-05-12T19:11:45.181Z,-128.00
2023-05-12T19:14:12.176Z,-128.00
2023-05-12T19:16:40.032Z,-128.00
2023-05-12T19:19:13.386Z,-128.00
2023-05-12T19:21:42.989Z,-128.00
2023-05-12T19:24:10.708Z,-128.00
2023-05-12T19:26:37.747Z,-128.00
2023-05-12T19:29:04.782Z,-128.00
2023-05-12T19:31:32.008Z,-128.00
2023-05-12T19:33:58.979Z,-128.00
2023-05-12T19:36:25.909Z,-128.00
2023-05-12T19:38:52.941Z,-128.00
2023-05-12T19:41:20.767Z,-128.00
2023-05-12T19:43:48.365Z,-128.00
2023-05-12T19:46:16.931Z,-128.00
2023-05-12T19:48:43.841Z,-128.00
2023-05-12T19:51:10.846Z,-128.00
2023-05-12T19:53:37.763Z,-128.00
2023-05-12T19:56:04.742Z,-128.00
2023-05-12T19:58:31.646Z,-128.00
2023-05-12T20:00:58.579Z,-128.00
2023-05-12T20:03:25.718Z,-128.00
2023-05-12T20:05:52.681Z,-128.00
2023-05-12T20:08:19.689Z,-128.00
2023-05-12T20:10:47.173Z,-128.00
2023-05-12T20:13:14.188Z,-128.00
2023-05-12T20:15:42.762Z,-128.00
2023-05-12T20:18:12.061Z,-128.00
2023-05-12T20:20:38.905Z,-128.00
2023-05-12T20:23:05.953Z,-128.00
2023-05-12T20:25:33.464Z,-128.00
2023-05-12T20:28:01.577Z,-128.00
2023-05-12T20:30:28.515Z,-128.00
2023-05-12T21:06:11.718Z,13.53
2023-05-12T21:08:40.980Z,-13.41
2023-05-12T21:11:20.784Z,-17.81
2023-05-12T21:13:47.661Z,-128.00
2023-05-12T21:16:15.166Z,-128.00
2023-05-12T21:18:42.275Z,-128.00
2023-05-12T21:21:08.948Z,-128.00
2023-05-12T21:23:38.298Z,-128.00
2023-05-12T21:26:05.711Z,-128.00
2023-05-12T21:28:32.437Z,-128.00
2023-05-12T21:30:59.160Z,-128.00
2023-05-12T21:33:25.789Z,-128.00
2023-05-12T21:35:54.903Z,-128.00
2023-05-12T21:38:21.668Z,-128.00
2023-05-12T21:40:51.317Z,-128.00
2023-05-12T21:43:18.118Z,-128.00
2023-05-12T21:45:44.973Z,-128.00
2023-05-12T21:48:12.046Z,-128.00
2023-05-12T21:50:38.900Z,-128.00
2023-05-12T21:53:08.338Z,-128.00
2023-05-12T21:55:37.961Z,-128.00
2023-05-12T21:58:04.600Z,-128.00
2023-05-12T22:00:31.273Z,-128.00
2023-05-12T22:02:58.038Z,-128.00
2023-05-12T22:05:24.856Z,-128.00
2023-05-12T22:07:51.960Z,-128.00
2023-05-12T22:10:19.191Z,-128.00
2023-05-12T22:12:46.097Z,-128.00
2023-05-12T22:15:12.825Z,-128.00
2023-05-12T22:17:39.654Z,-128.00
2023-05-12T22:20:08.582Z,-128.00
2023-05-12T22:22:35.438Z,-128.00
2023-05-12T22:25:04.027Z,-128.00
2023-05-12T22:27:31.062Z,-128.00
2023-05-12T22:29:58.023Z,-128.00
2023-05-12T22:32:24.770Z,-128.00
2023-05-12T22:34:54.844Z,-128.00
2023-05-12T22:37:21.741Z,-128.00
2023-05-12T22:39:48.478Z,-128.00
2023-05-12T22:42:15.253Z,-128.00
2023-05-12T22:44:41.853Z,-128.00
2023-05-12T22:47:08.609Z,-128.00
2023-05-12T22:49:35.493Z,-128.00
2023-05-12T22:52:02.184Z,-128.00
2023-05-12T22:54:29.238Z,-128.00
2023-05-12T22:56:56.013Z,-128.00
2023-05-12T22:59:23.150Z,-128.00
2023-05-12T23:01:49.798Z,-128.00
2023-05-12T23:04:16.592Z,-128.00
2023-05-12T23:06:43.472Z,-128.00
2023-05-12T23:09:10.219Z,-128.00
2023-05-12T23:11:37.583Z,-128.00
2023-05-12T23:14:04.385Z,-128.00
2023-05-12T23:16:32.435Z,-128.00
2023-05-12T23:18:59.252Z,-128.00
2023-05-12T23:21:25.918Z,-128.00
2023-05-12T23:23:52.563Z,-128.00
2023-05-12T23:26:19.183Z,-128.00
2023-05-12T23:28:45.795Z,-128.00
2023-05-12T23:31:12.647Z,-128.00
2023-05-12T23:33:39.299Z,-128.00
2023-05-12T23:36:06.916Z,-128.00
2023-05-12T23:38:33.860Z,-128.00
2023-05-12T23:41:00.533Z,-128.00
2023-05-12T23:43:27.468Z,-128.00
2023-05-12T23:45:54.213Z,-128.00
2023-05-12T23:48:20.907Z,-128.00
2023-05-12T23:50:47.817Z,-128.00
2023-05-12T23:53:14.726Z,-128.00
2023-05-12T23:55:41.605Z,-128.00
2023-05-12T23:58:10.074Z,-128.00
